sensor_id;sensor_type;location;lat;lon;timestamp;P1;durP1;ratioP1;P2;durP2;ratioP2
32780;SDS011;19136;47.032;15.502;2022-11-13T00:03:44;22.63;;;12.00;;
32780;SDS011;19136;47.032;15.502;2022-11-13T00:06:10;25.17;;;12.00;;
32780;SDS011;19136;47.032;15.502;2022-11-13T00:08:36;25.95;;;12.05;;
32780;SDS011;19136;47.032;15.502;2022-11-13T00:11:06;24.02;;;12.15;;
32780;SDS011;19136;47.032;15.502;2022-11-13T00:13:36;26.17;;;11.45;;
32780;SDS011;19136;47.032;15.502;2022-11-13T00:16:05;27.80;;;11.25;;
32780;SDS011;19136;47.032;15.502;2022-11-13T00:18:33;25.25;;;11.70;;
32780;SDS011;19136;47.032;15.502;2022-11-13T00:23:37;25.33;;;11.27;;
32780;SDS011;19136;47.032;15.502;2022-11-13T00:26:22;20.15;;;10.75;;
32780;SDS011;19136;47.032;15.502;2022-11-13T00:28:55;21.25;;;11.95;;
32780;SDS011;19136;47.032;15.502;2022-11-13T00:31:22;20.70;;;9.93;;
32780;SDS011;19136;47.032;15.502;2022-11-13T00:33:48;21.45;;;10.75;;
32780;SDS011;19136;47.032;15.502;2022-11-13T00:36:15;19.17;;;10.43;;
32780;SDS011;19136;47.032;15.502;2022-11-13T00:38:42;22.65;;;11.18;;
32780;SDS011;19136;47.032;15.502;2022-11-13T00:41:08;21.13;;;9.60;;
32780;SDS011;19136;47.032;15.502;2022-11-13T00:43:33;20.42;;;9.18;;
32780;SDS011;19136;47.032;15.502;2022-11-13T00:45:59;15.35;;;9.02;;
32780;SDS011;19136;47.032;15.502;2022-11-13T00:48:24;24.83;;;9.77;;
32780;SDS011;19136;47.032;15.502;2022-11-13T00:50:50;18.55;;;8.88;;
32780;SDS011;19136;47.032;15.502;2022-11-13T00:53:16;19.90;;;10.18;;
32780;SDS011;19136;47.032;15.502;2022-11-13T00:55:44;18.25;;;9.85;;
32780;SDS011;19136;47.032;15.502;2022-11-13T00:58:10;20.05;;;10.02;;
32780;SDS011;19136;47.032;15.502;2022-11-13T01:00:37;17.80;;;10.00;;
32780;SDS011;19136;47.032;15.502;2022-11-13T01:03:03;19.10;;;10.07;;
32780;SDS011;19136;47.032;15.502;2022-11-13T01:05:28;19.27;;;9.43;;
32780;SDS011;19136;47.032;15.502;2022-11-13T01:07:54;20.58;;;10.27;;
32780;SDS011;19136;47.032;15.502;2022-11-13T01:10:20;23.17;;;9.63;;
32780;SDS011;19136;47.032;15.502;2022-11-13T01:12:46;15.95;;;8.90;;
32780;SDS011;19136;47.032;15.502;2022-11-13T01:15:12;19.75;;;9.10;;
32780;SDS011;19136;47.032;15.502;2022-11-13T01:17:38;19.67;;;8.80;;
32780;SDS011;19136;47.032;15.502;2022-11-13T01:20:04;18.88;;;8.73;;
32780;SDS011;19136;47.032;15.502;2022-11-13T01:22:30;19.27;;;8.93;;
32780;SDS011;19136;47.032;15.502;2022-11-13T01:24:56;16.23;;;9.13;;
32780;SDS011;19136;47.032;15.502;2022-11-13T01:27:21;20.27;;;9.43;;
32780;SDS011;19136;47.032;15.502;2022-11-13T01:29:47;14.10;;;8.18;;
32780;SDS011;19136;47.032;15.502;2022-11-13T01:32:12;15.40;;;7.82;;
32780;SDS011;19136;47.032;15.502;2022-11-13T01:34:37;19.80;;;8.85;;
32780;SDS011;19136;47.032;15.502;2022-11-13T01:37:03;19.13;;;8.50;;
32780;SDS011;19136;47.032;15.502;2022-11-13T01:39:29;19.80;;;9.00;;
32780;SDS011;19136;47.032;15.502;2022-11-13T01:41:55;21.60;;;10.63;;
32780;SDS011;19136;47.032;15.502;2022-11-13T01:44:20;18.77;;;8.88;;
32780;SDS011;19136;47.032;15.502;2022-11-13T01:46:47;16.95;;;8.32;;
32780;SDS011;19136;47.032;15.502;2022-11-13T01:52:19;13.55;;;8.05;;
32780;SDS011;19136;47.032;15.502;2022-11-13T01:54:49;18.27;;;8.27;;
32780;SDS011;19136;47.032;15.502;2022-11-13T01:57:17;14.65;;;8.18;;
32780;SDS011;19136;47.032;15.502;2022-11-13T01:59:45;16.85;;;8.65;;
32780;SDS011;19136;47.032;15.502;2022-11-13T02:02:16;14.48;;;8.13;;
32780;SDS011;19136;47.032;15.502;2022-11-13T02:04:42;16.10;;;8.98;;
32780;SDS011;19136;47.032;15.502;2022-11-13T02:07:14;15.18;;;7.85;;
32780;SDS011;19136;47.032;15.502;2022-11-13T02:09:42;17.58;;;9.68;;
32780;SDS011;19136;47.032;15.502;2022-11-13T02:12:13;17.98;;;8.90;;
32780;SDS011;19136;47.032;15.502;2022-11-13T02:14:41;16.25;;;8.50;;
32780;SDS011;19136;47.032;15.502;2022-11-13T02:17:10;16.15;;;8.25;;
32780;SDS011;19136;47.032;15.502;2022-11-13T02:19:39;14.93;;;7.82;;
32780;SDS011;19136;47.032;15.502;2022-11-13T02:24:44;21.75;;;10.13;;
32780;SDS011;19136;47.032;15.502;2022-11-13T02:27:24;19.70;;;8.80;;
32780;SDS011;19136;47.032;15.502;2022-11-13T02:29:52;18.40;;;9.38;;
32780;SDS011;19136;47.032;15.502;2022-11-13T02:32:17;28.23;;;9.32;;
32780;SDS011;19136;47.032;15.502;2022-11-13T02:34:43;14.98;;;8.40;;
32780;SDS011;19136;47.032;15.502;2022-11-13T02:37:08;17.95;;;8.00;;
32780;SDS011;19136;47.032;15.502;2022-11-13T02:39:34;15.20;;;8.63;;
32780;SDS011;19136;47.032;15.502;2022-11-13T02:41:59;16.42;;;8.57;;
32780;SDS011;19136;47.032;15.502;2022-11-13T02:44:25;15.35;;;8.75;;
32780;SDS011;19136;47.032;15.502;2022-11-13T02:46:50;18.77;;;9.45;;
32780;SDS011;19136;47.032;15.502;2022-11-13T02:49:16;23.70;;;10.77;;
32780;SDS011;19136;47.032;15.502;2022-11-13T02:51:41;21.08;;;10.52;;
32780;SDS011;19136;47.032;15.502;2022-11-13T02:54:07;19.52;;;9.57;;
32780;SDS011;19136;47.032;15.502;2022-11-13T02:56:32;19.35;;;8.52;;
32780;SDS011;19136;47.032;15.502;2022-11-13T02:58:58;20.00;;;8.95;;
32780;SDS011;19136;47.032;15.502;2022-11-13T03:01:23;18.25;;;8.85;;
32780;SDS011;19136;47.032;15.502;2022-11-13T03:03:49;20.50;;;10.05;;
32780;SDS011;19136;47.032;15.502;2022-11-13T03:06:14;16.33;;;9.05;;
32780;SDS011;19136;47.032;15.502;2022-11-13T03:08:40;16.83;;;9.02;;
32780;SDS011;19136;47.032;15.502;2022-11-13T03:11:06;20.90;;;9.05;;
32780;SDS011;19136;47.032;15.502;2022-11-13T03:13:33;22.42;;;11.23;;
32780;SDS011;19136;47.032;15.502;2022-11-13T03:16:33;25.55;;;11.38;;
32780;SDS011;19136;47.032;15.502;2022-11-13T03:18:50;20.83;;;9.95;;
32780;SDS011;19136;47.032;15.502;2022-11-13T03:21:16;23.02;;;11.57;;
32780;SDS011;19136;47.032;15.502;2022-11-13T03:23:42;17.73;;;11.50;;
32780;SDS011;19136;47.032;15.502;2022-11-13T03:26:10;19.52;;;10.93;;
32780;SDS011;19136;47.032;15.502;2022-11-13T03:28:37;23.85;;;12.75;;
32780;SDS011;19136;47.032;15.502;2022-11-13T03:31:03;23.02;;;12.35;;
32780;SDS011;19136;47.032;15.502;2022-11-13T03:33:28;26.17;;;12.63;;
32780;SDS011;19136;47.032;15.502;2022-11-13T03:35:54;24.80;;;14.10;;
32780;SDS011;19136;47.032;15.502;2022-11-13T03:38:20;23.75;;;13.18;;
32780;SDS011;19136;47.032;15.502;2022-11-13T03:40:46;22.52;;;11.38;;
32780;SDS011;19136;47.032;15.502;2022-11-13T03:43:11;21.38;;;12.27;;
32780;SDS011;19136;47.032;15.502;2022-11-13T03:45:37;26.38;;;11.23;;
32780;SDS011;19136;47.032;15.502;2022-11-13T03:48:02;19.23;;;10.70;;
32780;SDS011;19136;47.032;15.502;2022-11-13T03:50:28;23.23;;;12.90;;
32780;SDS011;19136;47.032;15.502;2022-11-13T03:52:54;28.23;;;11.73;;
32780;SDS011;19136;47.032;15.502;2022-11-13T03:55:19;19.05;;;11.10;;
32780;SDS011;19136;47.032;15.502;2022-11-13T03:57:48;22.17;;;12.13;;
32780;SDS011;19136;47.032;15.502;2022-11-13T04:00:13;19.83;;;12.18;;
32780;SDS011;19136;47.032;15.502;2022-11-13T04:02:39;25.20;;;11.95;;
32780;SDS011;19136;47.032;15.502;2022-11-13T04:05:05;20.35;;;10.77;;
32780;SDS011;19136;47.032;15.502;2022-11-13T04:07:31;20.52;;;11.75;;
32780;SDS011;19136;47.032;15.502;2022-11-13T04:09:57;24.60;;;11.93;;
32780;SDS011;19136;47.032;15.502;2022-11-13T04:12:22;22.48;;;13.05;;
32780;SDS011;19136;47.032;15.502;2022-11-13T04:14:48;21.55;;;11.55;;
32780;SDS011;19136;47.032;15.502;2022-11-13T04:17:13;21.35;;;11.57;;
32780;SDS011;19136;47.032;15.502;2022-11-13T04:19:39;25.23;;;13.52;;
32780;SDS011;19136;47.032;15.502;2022-11-13T04:22:04;21.58;;;12.90;;
32780;SDS011;19136;47.032;15.502;2022-11-13T04:24:30;24.60;;;12.88;;
32780;SDS011;19136;47.032;15.502;2022-11-13T04:26:55;20.45;;;11.95;;
32780;SDS011;19136;47.032;15.502;2022-11-13T04:29:21;20.88;;;11.13;;
32780;SDS011;19136;47.032;15.502;2022-11-13T04:31:47;21.00;;;11.38;;
32780;SDS011;19136;47.032;15.502;2022-11-13T04:34:12;21.15;;;11.23;;
32780;SDS011;19136;47.032;15.502;2022-11-13T04:36:37;21.88;;;11.40;;
32780;SDS011;19136;47.032;15.502;2022-11-13T04:39:06;25.13;;;12.63;;
32780;SDS011;19136;47.032;15.502;2022-11-13T04:41:32;21.52;;;12.25;;
32780;SDS011;19136;47.032;15.502;2022-11-13T04:44:16;20.08;;;12.23;;
32780;SDS011;19136;47.032;15.502;2022-11-13T04:46:41;26.23;;;13.10;;
32780;SDS011;19136;47.032;15.502;2022-11-13T04:49:07;27.73;;;12.82;;
32780;SDS011;19136;47.032;15.502;2022-11-13T04:51:32;25.52;;;13.02;;
32780;SDS011;19136;47.032;15.502;2022-11-13T04:53:58;22.10;;;12.55;;
32780;SDS011;19136;47.032;15.502;2022-11-13T04:56:23;27.92;;;14.20;;
32780;SDS011;19136;47.032;15.502;2022-11-13T04:58:49;22.92;;;12.45;;
32780;SDS011;19136;47.032;15.502;2022-11-13T05:01:14;23.23;;;12.45;;
32780;SDS011;19136;47.032;15.502;2022-11-13T05:03:40;25.10;;;13.25;;
32780;SDS011;19136;47.032;15.502;2022-11-13T05:06:06;23.10;;;12.85;;
32780;SDS011;19136;47.032;15.502;2022-11-13T05:08:33;24.35;;;13.80;;
32780;SDS011;19136;47.032;15.502;2022-11-13T05:10:59;23.77;;;13.77;;
32780;SDS011;19136;47.032;15.502;2022-11-13T05:13:25;28.48;;;12.93;;
32780;SDS011;19136;47.032;15.502;2022-11-13T05:15:58;26.85;;;13.90;;
32780;SDS011;19136;47.032;15.502;2022-11-13T05:18:25;48.58;;;23.75;;
32780;SDS011;19136;47.032;15.502;2022-11-13T05:20:50;44.65;;;20.92;;
32780;SDS011;19136;47.032;15.502;2022-11-13T05:23:16;29.63;;;16.15;;
32780;SDS011;19136;47.032;15.502;2022-11-13T05:25:41;35.30;;;18.27;;
32780;SDS011;19136;47.032;15.502;2022-11-13T05:28:07;32.00;;;17.25;;
32780;SDS011;19136;47.032;15.502;2022-11-13T05:30:32;41.53;;;21.70;;
32780;SDS011;19136;47.032;15.502;2022-11-13T05:32:58;35.17;;;19.20;;
32780;SDS011;19136;47.032;15.502;2022-11-13T05:35:23;36.40;;;19.33;;
32780;SDS011;19136;47.032;15.502;2022-11-13T05:37:49;38.22;;;19.80;;
32780;SDS011;19136;47.032;15.502;2022-11-13T05:40:14;31.35;;;17.58;;
32780;SDS011;19136;47.032;15.502;2022-11-13T05:42:40;26.85;;;15.75;;
32780;SDS011;19136;47.032;15.502;2022-11-13T05:45:06;29.00;;;17.92;;
32780;SDS011;19136;47.032;15.502;2022-11-13T05:47:32;32.60;;;16.20;;
32780;SDS011;19136;47.032;15.502;2022-11-13T05:49:57;33.53;;;15.27;;
32780;SDS011;19136;47.032;15.502;2022-11-13T05:52:23;25.77;;;14.23;;
32780;SDS011;19136;47.032;15.502;2022-11-13T05:54:48;24.48;;;14.20;;
32780;SDS011;19136;47.032;15.502;2022-11-13T05:57:14;24.85;;;14.38;;
32780;SDS011;19136;47.032;15.502;2022-11-13T05:59:39;28.90;;;16.13;;
32780;SDS011;19136;47.032;15.502;2022-11-13T06:02:05;32.90;;;17.33;;
32780;SDS011;19136;47.032;15.502;2022-11-13T06:04:30;34.13;;;19.33;;
32780;SDS011;19136;47.032;15.502;2022-11-13T06:06:56;36.75;;;18.90;;
32780;SDS011;19136;47.032;15.502;2022-11-13T06:09:21;36.08;;;19.33;;
32780;SDS011;19136;47.032;15.502;2022-11-13T06:11:47;29.15;;;16.70;;
32780;SDS011;19136;47.032;15.502;2022-11-13T06:14:13;31.20;;;16.67;;
32780;SDS011;19136;47.032;15.502;2022-11-13T06:16:38;31.75;;;16.00;;
32780;SDS011;19136;47.032;15.502;2022-11-13T06:19:05;28.45;;;15.88;;
32780;SDS011;19136;47.032;15.502;2022-11-13T06:21:33;31.35;;;16.65;;
32780;SDS011;19136;47.032;15.502;2022-11-13T06:24:00;27.48;;;15.35;;
32780;SDS011;19136;47.032;15.502;2022-11-13T06:26:26;30.73;;;15.88;;
32780;SDS011;19136;47.032;15.502;2022-11-13T06:28:54;31.55;;;15.30;;
32780;SDS011;19136;47.032;15.502;2022-11-13T06:31:20;28.88;;;15.48;;
32780;SDS011;19136;47.032;15.502;2022-11-13T06:33:47;30.63;;;16.42;;
32780;SDS011;19136;47.032;15.502;2022-11-13T06:36:15;27.77;;;15.10;;
32780;SDS011;19136;47.032;15.502;2022-11-13T06:38:45;29.40;;;16.65;;
32780;SDS011;19136;47.032;15.502;2022-11-13T06:41:13;28.15;;;15.80;;
32780;SDS011;19136;47.032;15.502;2022-11-13T06:43:39;24.75;;;14.43;;
32780;SDS011;19136;47.032;15.502;2022-11-13T06:46:06;31.48;;;16.45;;
32780;SDS011;19136;47.032;15.502;2022-11-13T06:48:34;30.60;;;16.20;;
32780;SDS011;19136;47.032;15.502;2022-11-13T06:51:00;28.23;;;16.48;;
32780;SDS011;19136;47.032;15.502;2022-11-13T06:53:28;26.17;;;16.13;;
32780;SDS011;19136;47.032;15.502;2022-11-13T06:55:53;28.45;;;16.73;;
32780;SDS011;19136;47.032;15.502;2022-11-13T06:58:19;34.17;;;17.73;;
32780;SDS011;19136;47.032;15.502;2022-11-13T07:00:44;31.45;;;16.70;;
32780;SDS011;19136;47.032;15.502;2022-11-13T07:03:28;31.17;;;17.50;;
32780;SDS011;19136;47.032;15.502;2022-11-13T07:05:53;37.97;;;20.23;;
32780;SDS011;19136;47.032;15.502;2022-11-13T07:08:19;36.97;;;23.10;;
32780;SDS011;19136;47.032;15.502;2022-11-13T07:10:51;38.13;;;19.70;;
32780;SDS011;19136;47.032;15.502;2022-11-13T07:13:18;35.92;;;18.63;;
32780;SDS011;19136;47.032;15.502;2022-11-13T07:15:44;38.50;;;21.58;;
32780;SDS011;19136;47.032;15.502;2022-11-13T07:18:09;36.47;;;20.23;;
32780;SDS011;19136;47.032;15.502;2022-11-13T07:20:35;40.22;;;18.60;;
32780;SDS011;19136;47.032;15.502;2022-11-13T07:23:01;31.52;;;19.08;;
32780;SDS011;19136;47.032;15.502;2022-11-13T07:25:28;35.85;;;19.15;;
32780;SDS011;19136;47.032;15.502;2022-11-13T07:27:54;36.42;;;20.20;;
32780;SDS011;19136;47.032;15.502;2022-11-13T07:30:19;32.70;;;18.70;;
32780;SDS011;19136;47.032;15.502;2022-11-13T07:32:45;38.05;;;21.48;;
32780;SDS011;19136;47.032;15.502;2022-11-13T07:35:10;41.58;;;21.98;;
32780;SDS011;19136;47.032;15.502;2022-11-13T07:37:36;39.28;;;22.75;;
32780;SDS011;19136;47.032;15.502;2022-11-13T07:40:02;38.88;;;22.95;;
32780;SDS011;19136;47.032;15.502;2022-11-13T07:42:28;42.83;;;23.48;;
32780;SDS011;19136;47.032;15.502;2022-11-13T07:44:54;38.55;;;22.27;;
32780;SDS011;19136;47.032;15.502;2022-11-13T07:47:19;40.63;;;22.50;;
32780;SDS011;19136;47.032;15.502;2022-11-13T07:49:45;36.10;;;20.88;;
32780;SDS011;19136;47.032;15.502;2022-11-13T07:52:10;41.28;;;21.20;;
32780;SDS011;19136;47.032;15.502;2022-11-13T07:54:39;34.05;;;19.48;;
32780;SDS011;19136;47.032;15.502;2022-11-13T07:57:04;34.25;;;20.42;;
32780;SDS011;19136;47.032;15.502;2022-11-13T07:59:30;32.53;;;18.85;;
32780;SDS011;19136;47.032;15.502;2022-11-13T08:01:56;36.20;;;19.67;;
32780;SDS011;19136;47.032;15.502;2022-11-13T08:04:21;32.97;;;19.77;;
32780;SDS011;19136;47.032;15.502;2022-11-13T08:06:47;39.03;;;21.98;;
32780;SDS011;19136;47.032;15.502;2022-11-13T08:09:12;42.70;;;20.45;;
32780;SDS011;19136;47.032;15.502;2022-11-13T08:11:38;39.75;;;19.73;;
32780;SDS011;19136;47.032;15.502;2022-11-13T08:14:03;45.03;;;23.67;;
32780;SDS011;19136;47.032;15.502;2022-11-13T08:16:29;48.88;;;26.35;;
32780;SDS011;19136;47.032;15.502;2022-11-13T08:18:55;65.65;;;30.05;;
32780;SDS011;19136;47.032;15.502;2022-11-13T08:21:20;48.28;;;25.65;;
32780;SDS011;19136;47.032;15.502;2022-11-13T08:23:46;48.08;;;23.80;;
32780;SDS011;19136;47.032;15.502;2022-11-13T08:26:12;43.63;;;22.95;;
32780;SDS011;19136;47.032;15.502;2022-11-13T08:28:38;48.22;;;23.63;;
32780;SDS011;19136;47.032;15.502;2022-11-13T08:31:08;45.67;;;24.02;;
32780;SDS011;19136;47.032;15.502;2022-11-13T08:33:35;42.58;;;22.48;;
32780;SDS011;19136;47.032;15.502;2022-11-13T08:36:00;49.00;;;22.50;;
32780;SDS011;19136;47.032;15.502;2022-11-13T08:38:26;46.10;;;24.40;;
32780;SDS011;19136;47.032;15.502;2022-11-13T08:40:51;54.08;;;26.75;;
32780;SDS011;19136;47.032;15.502;2022-11-13T08:43:20;50.67;;;27.23;;
32780;SDS011;19136;47.032;15.502;2022-11-13T08:45:46;58.63;;;28.90;;
32780;SDS011;19136;47.032;15.502;2022-11-13T08:48:12;48.90;;;26.00;;
32780;SDS011;19136;47.032;15.502;2022-11-13T08:50:37;50.47;;;25.40;;
32780;SDS011;19136;47.032;15.502;2022-11-13T08:53:03;51.25;;;25.52;;
32780;SDS011;19136;47.032;15.502;2022-11-13T08:55:29;47.65;;;24.33;;
32780;SDS011;19136;47.032;15.502;2022-11-13T08:57:57;50.78;;;26.02;;
32780;SDS011;19136;47.032;15.502;2022-11-13T09:00:24;47.90;;;23.77;;
32780;SDS011;19136;47.032;15.502;2022-11-13T09:02:53;42.83;;;23.83;;
32780;SDS011;19136;47.032;15.502;2022-11-13T09:05:22;45.05;;;23.85;;
32780;SDS011;19136;47.032;15.502;2022-11-13T09:07:48;49.13;;;24.45;;
32780;SDS011;19136;47.032;15.502;2022-11-13T09:10:15;44.63;;;23.77;;
32780;SDS011;19136;47.032;15.502;2022-11-13T09:12:43;47.88;;;25.38;;
32780;SDS011;19136;47.032;15.502;2022-11-13T09:15:09;46.20;;;23.77;;
32780;SDS011;19136;47.032;15.502;2022-11-13T09:17:35;45.10;;;22.83;;
32780;SDS011;19136;47.032;15.502;2022-11-13T09:20:01;46.80;;;24.83;;
32780;SDS011;19136;47.032;15.502;2022-11-13T09:22:27;40.38;;;22.38;;
32780;SDS011;19136;47.032;15.502;2022-11-13T09:24:53;41.45;;;23.63;;
32780;SDS011;19136;47.032;15.502;2022-11-13T09:27:19;42.53;;;22.70;;
32780;SDS011;19136;47.032;15.502;2022-11-13T09:29:44;36.75;;;21.80;;
32780;SDS011;19136;47.032;15.502;2022-11-13T09:32:09;41.42;;;22.77;;
32780;SDS011;19136;47.032;15.502;2022-11-13T09:34:35;40.30;;;22.42;;
32780;SDS011;19136;47.032;15.502;2022-11-13T09:37:00;40.40;;;23.30;;
32780;SDS011;19136;47.032;15.502;2022-11-13T09:39:26;44.30;;;25.38;;
32780;SDS011;19136;47.032;15.502;2022-11-13T09:42:00;43.72;;;22.50;;
32780;SDS011;19136;47.032;15.502;2022-11-13T09:44:41;40.33;;;20.88;;
32780;SDS011;19136;47.032;15.502;2022-11-13T09:47:16;39.85;;;23.38;;
32780;SDS011;19136;47.032;15.502;2022-11-13T09:49:47;41.55;;;21.38;;
32780;SDS011;19136;47.032;15.502;2022-11-13T09:52:29;38.13;;;21.10;;
32780;SDS011;19136;47.032;15.502;2022-11-13T09:54:57;34.95;;;22.30;;
32780;SDS011;19136;47.032;15.502;2022-11-13T09:57:26;39.45;;;22.15;;
32780;SDS011;19136;47.032;15.502;2022-11-13T10:00:20;32.85;;;20.85;;
32780;SDS011;19136;47.032;15.502;2022-11-13T10:08:20;38.78;;;20.23;;
32780;SDS011;19136;47.032;15.502;2022-11-13T10:13:24;31.65;;;19.85;;
32780;SDS011;19136;47.032;15.502;2022-11-13T10:16:00;30.05;;;17.63;;
32780;SDS011;19136;47.032;15.502;2022-11-13T10:18:32;36.78;;;20.90;;
32780;SDS011;19136;47.032;15.502;2022-11-13T10:21:45;30.33;;;19.20;;
32780;SDS011;19136;47.032;15.502;2022-11-13T10:24:10;32.72;;;19.30;;
32780;SDS011;19136;47.032;15.502;2022-11-13T10:26:43;33.53;;;19.45;;
32780;SDS011;19136;47.032;15.502;2022-11-13T10:29:12;32.83;;;18.85;;
32780;SDS011;19136;47.032;15.502;2022-11-13T10:31:40;31.30;;;18.10;;
32780;SDS011;19136;47.032;15.502;2022-11-13T10:34:09;29.40;;;17.45;;
32780;SDS011;19136;47.032;15.502;2022-11-13T10:39:42;27.15;;;17.00;;
32780;SDS011;19136;47.032;15.502;2022-11-13T10:45:14;24.80;;;15.30;;
32780;SDS011;19136;47.032;15.502;2022-11-13T10:47:45;24.33;;;14.57;;
32780;SDS011;19136;47.032;15.502;2022-11-13T10:50:26;26.17;;;15.20;;
32780;SDS011;19136;47.032;15.502;2022-11-13T10:52:53;26.63;;;15.35;;
32780;SDS011;19136;47.032;15.502;2022-11-13T10:55:38;21.52;;;13.88;;
32780;SDS011;19136;47.032;15.502;2022-11-13T10:58:13;25.92;;;15.65;;
32780;SDS011;19136;47.032;15.502;2022-11-13T11:00:41;25.45;;;17.10;;
32780;SDS011;19136;47.032;15.502;2022-11-13T11:03:19;29.30;;;18.75;;
32780;SDS011;19136;47.032;15.502;2022-11-13T11:08:27;29.30;;;18.08;;
32780;SDS011;19136;47.032;15.502;2022-11-13T11:10:56;30.52;;;17.75;;
32780;SDS011;19136;47.032;15.502;2022-11-13T11:13:44;28.15;;;17.35;;
32780;SDS011;19136;47.032;15.502;2022-11-13T11:16:11;25.00;;;15.73;;
32780;SDS011;19136;47.032;15.502;2022-11-13T11:18:44;23.13;;;14.75;;
32780;SDS011;19136;47.032;15.502;2022-11-13T11:21:15;24.75;;;15.02;;
32780;SDS011;19136;47.032;15.502;2022-11-13T11:29:20;26.98;;;17.95;;
32780;SDS011;19136;47.032;15.502;2022-11-13T11:31:59;28.90;;;17.77;;
32780;SDS011;19136;47.032;15.502;2022-11-13T11:34:43;30.73;;;18.13;;
32780;SDS011;19136;47.032;15.502;2022-11-13T11:37:14;26.77;;;17.88;;
32780;SDS011;19136;47.032;15.502;2022-11-13T11:39:47;28.40;;;18.25;;
32780;SDS011;19136;47.032;15.502;2022-11-13T11:42:55;33.47;;;19.90;;
32780;SDS011;19136;47.032;15.502;2022-11-13T11:45:27;31.50;;;19.17;;
32780;SDS011;19136;47.032;15.502;2022-11-13T11:47:55;31.20;;;21.02;;
32780;SDS011;19136;47.032;15.502;2022-11-13T11:50:35;30.85;;;20.05;;
32780;SDS011;19136;47.032;15.502;2022-11-13T11:53:47;33.78;;;20.83;;
32780;SDS011;19136;47.032;15.502;2022-11-13T11:56:05;31.40;;;20.30;;
32780;SDS011;19136;47.032;15.502;2022-11-13T12:07:35;38.45;;;21.65;;
32780;SDS011;19136;47.032;15.502;2022-11-13T12:15:08;31.48;;;19.67;;
32780;SDS011;19136;47.032;15.502;2022-11-13T12:17:43;32.17;;;20.20;;
32780;SDS011;19136;47.032;15.502;2022-11-13T12:25:49;34.17;;;21.63;;
32780;SDS011;19136;47.032;15.502;2022-11-13T12:36:30;36.05;;;22.42;;
32780;SDS011;19136;47.032;15.502;2022-11-13T12:41:52;35.60;;;21.95;;
32780;SDS011;19136;47.032;15.502;2022-11-13T12:44:28;30.63;;;20.67;;
32780;SDS011;19136;47.032;15.502;2022-11-13T12:46:55;33.47;;;20.33;;
32780;SDS011;19136;47.032;15.502;2022-11-13T12:52:21;28.77;;;19.27;;
32780;SDS011;19136;47.032;15.502;2022-11-13T12:54:42;34.72;;;20.80;;
32780;SDS011;19136;47.032;15.502;2022-11-13T12:59:38;34.80;;;20.73;;
32780;SDS011;19136;47.032;15.502;2022-11-13T13:04:39;35.20;;;23.27;;
32780;SDS011;19136;47.032;15.502;2022-11-13T13:15:28;29.45;;;17.42;;
32780;SDS011;19136;47.032;15.502;2022-11-13T13:18:09;33.47;;;19.02;;
32780;SDS011;19136;47.032;15.502;2022-11-13T13:23:28;31.67;;;19.48;;
32780;SDS011;19136;47.032;15.502;2022-11-13T13:28:52;23.63;;;15.05;;
32780;SDS011;19136;47.032;15.502;2022-11-13T13:37:03;21.00;;;12.88;;
32780;SDS011;19136;47.032;15.502;2022-11-13T13:39:49;22.90;;;14.00;;
32780;SDS011;19136;47.032;15.502;2022-11-13T13:45:37;26.83;;;14.07;;
32780;SDS011;19136;47.032;15.502;2022-11-13T13:48:15;23.60;;;15.05;;
32780;SDS011;19136;47.032;15.502;2022-11-13T13:50:44;31.05;;;16.60;;
32780;SDS011;19136;47.032;15.502;2022-11-13T13:53:21;21.85;;;14.95;;
32780;SDS011;19136;47.032;15.502;2022-11-13T13:55:55;25.90;;;16.67;;
32780;SDS011;19136;47.032;15.502;2022-11-13T13:58:24;29.67;;;16.00;;
32780;SDS011;19136;47.032;15.502;2022-11-13T14:00:56;28.63;;;16.73;;
32780;SDS011;19136;47.032;15.502;2022-11-13T14:03:23;25.02;;;15.88;;
32780;SDS011;19136;47.032;15.502;2022-11-13T14:05:49;25.90;;;16.42;;
32780;SDS011;19136;47.032;15.502;2022-11-13T14:08:15;28.98;;;16.83;;
32780;SDS011;19136;47.032;15.502;2022-11-13T14:10:45;23.23;;;15.25;;
32780;SDS011;19136;47.032;15.502;2022-11-13T14:13:21;26.58;;;16.95;;
32780;SDS011;19136;47.032;15.502;2022-11-13T14:15:48;27.88;;;17.38;;
32780;SDS011;19136;47.032;15.502;2022-11-13T14:18:25;29.63;;;16.52;;
32780;SDS011;19136;47.032;15.502;2022-11-13T14:20:52;28.15;;;16.33;;
32780;SDS011;19136;47.032;15.502;2022-11-13T14:23:20;25.70;;;16.17;;
32780;SDS011;19136;47.032;15.502;2022-11-13T14:25:52;27.08;;;16.80;;
32780;SDS011;19136;47.032;15.502;2022-11-13T14:28:22;29.17;;;15.75;;
32780;SDS011;19136;47.032;15.502;2022-11-13T14:30:56;25.33;;;15.68;;
32780;SDS011;19136;47.032;15.502;2022-11-13T14:33:30;25.70;;;15.63;;
32780;SDS011;19136;47.032;15.502;2022-11-13T14:35:58;23.48;;;15.50;;
32780;SDS011;19136;47.032;15.502;2022-11-13T14:38:25;20.13;;;13.65;;
32780;SDS011;19136;47.032;15.502;2022-11-13T14:40:52;22.98;;;13.07;;
32780;SDS011;19136;47.032;15.502;2022-11-13T14:43:22;19.15;;;12.63;;
32780;SDS011;19136;47.032;15.502;2022-11-13T14:45:55;22.27;;;13.65;;
32780;SDS011;19136;47.032;15.502;2022-11-13T14:48:26;22.88;;;13.10;;
32780;SDS011;19136;47.032;15.502;2022-11-13T14:50:55;22.27;;;12.93;;
32780;SDS011;19136;47.032;15.502;2022-11-13T14:53:34;18.83;;;11.77;;
32780;SDS011;19136;47.032;15.502;2022-11-13T14:56:02;18.75;;;11.80;;
32780;SDS011;19136;47.032;15.502;2022-11-13T14:58:35;20.33;;;13.27;;
32780;SDS011;19136;47.032;15.502;2022-11-13T15:01:15;23.75;;;11.13;;
32780;SDS011;19136;47.032;15.502;2022-11-13T15:03:45;22.38;;;12.65;;
32780;SDS011;19136;47.032;15.502;2022-11-13T15:06:13;22.33;;;12.45;;
32780;SDS011;19136;47.032;15.502;2022-11-13T15:08:49;22.67;;;12.90;;
32780;SDS011;19136;47.032;15.502;2022-11-13T15:11:21;18.27;;;12.38;;
32780;SDS011;19136;47.032;15.502;2022-11-13T15:13:48;20.88;;;13.32;;
32780;SDS011;19136;47.032;15.502;2022-11-13T15:16:15;20.85;;;12.07;;
32780;SDS011;19136;47.032;15.502;2022-11-13T15:18:48;18.77;;;12.15;;
32780;SDS011;19136;47.032;15.502;2022-11-13T15:21:18;22.65;;;12.48;;
32780;SDS011;19136;47.032;15.502;2022-11-13T15:23:44;19.88;;;12.52;;
32780;SDS011;19136;47.032;15.502;2022-11-13T15:26:10;22.83;;;12.80;;
32780;SDS011;19136;47.032;15.502;2022-11-13T15:28:37;19.35;;;12.05;;
32780;SDS011;19136;47.032;15.502;2022-11-13T15:31:20;22.17;;;12.55;;
32780;SDS011;19136;47.032;15.502;2022-11-13T15:33:48;20.00;;;12.93;;
32780;SDS011;19136;47.032;15.502;2022-11-13T15:36:14;24.13;;;12.85;;
32780;SDS011;19136;47.032;15.502;2022-11-13T15:38:40;34.00;;;13.65;;
32780;SDS011;19136;47.032;15.502;2022-11-13T15:41:11;23.95;;;14.43;;
32780;SDS011;19136;47.032;15.502;2022-11-13T15:43:38;29.10;;;14.15;;
32780;SDS011;19136;47.032;15.502;2022-11-13T15:46:12;24.40;;;13.70;;
32780;SDS011;19136;47.032;15.502;2022-11-13T15:48:42;26.95;;;14.55;;
32780;SDS011;19136;47.032;15.502;2022-11-13T15:56:48;22.13;;;14.23;;
32780;SDS011;19136;47.032;15.502;2022-11-13T15:59:14;23.73;;;14.43;;